createdAt,value
2018-04-12T00:01:09.555Z,96627.16
2018-04-12T00:03:40.339Z,96601.39
2018-04-12T00:06:19.048Z,96603.86
2018-04-12T00:08:48.875Z,96601.16
2018-04-12T00:11:18.663Z,96588.63
2018-04-12T00:13:48.406Z,96588.55
2018-04-12T00:16:17.942Z,96603.61
2018-04-12T00:18:48.620Z,96611.14
2018-04-12T00:21:19.311Z,96598.89
2018-04-12T00:23:49.718Z,96616.90
2018-04-12T00:26:19.549Z,96619.23
2018-04-12T00:28:49.249Z,96597.48
2018-04-12T00:31:18.762Z,96594.53
2018-04-12T00:33:48.488Z,96588.10
2018-04-12T00:36:18.308Z,96589.48
2018-04-12T00:38:49.468Z,96588.29
2018-04-12T00:41:19.153Z,96585.28
2018-04-12T00:43:59.600Z,96585.74
2018-04-12T00:46:31.165Z,96594.97
2018-04-12T00:49:01.834Z,96602.84
2018-04-12T00:51:32.895Z,96596.49
2018-04-12T00:54:06.242Z,96610.27
2018-04-12T00:56:36.033Z,96608.08
2018-04-12T00:59:05.663Z,96620.20
2018-04-12T01:01:36.086Z,96628.44
2018-04-12T01:04:06.588Z,96631.11
2018-04-12T01:06:36.881Z,96631.11
2018-04-12T01:09:06.610Z,96630.86
2018-04-12T01:11:38.774Z,96641.25
2018-04-12T01:14:09.157Z,96652.17
2018-04-12T01:16:40.321Z,96647.45
2018-04-12T01:19:12.901Z,96639.11
2018-04-12T01:21:43.854Z,96652.35
2018-04-12T01:24:13.622Z,96645.30
2018-04-12T01:26:44.439Z,96651.79
2018-04-12T01:29:14.476Z,96648.55
2018-04-12T01:31:45.384Z,96646.59
2018-04-12T01:34:15.058Z,96648.33
2018-04-12T01:36:44.969Z,96645.48
2018-04-12T01:39:14.790Z,96639.41
2018-04-12T01:41:46.172Z,96632.55
2018-04-12T01:44:28.632Z,96646.87
2018-04-12T01:46:58.506Z,96652.14
2018-04-12T01:49:30.306Z,96660.50
2018-04-12T01:51:59.910Z,96660.22
2018-04-12T01:54:32.689Z,96643.05
2018-04-12T01:57:02.664Z,96638.46
2018-04-12T01:59:32.330Z,96627.84
2018-04-12T02:02:01.855Z,96631.88
2018-04-12T02:04:31.426Z,96628.79
2018-04-12T02:07:01.245Z,96620.99
2018-04-12T02:09:30.972Z,96626.56
2018-04-12T02:12:00.726Z,96626.52
2018-04-12T02:14:30.392Z,96631.22
2018-04-12T02:17:05.320Z,96643.61
2018-04-12T02:19:34.996Z,96627.64
2018-04-12T02:22:04.673Z,96628.16
2018-04-12T02:24:35.054Z,96639.23
2018-04-12T02:27:04.600Z,96623.57
2018-04-12T02:29:34.287Z,96610.17
2018-04-12T02:32:03.940Z,96590.48
2018-04-12T02:34:33.545Z,96584.04
2018-04-12T02:37:03.150Z,96597.84
2018-04-12T02:39:35.295Z,96605.96
2018-04-12T02:42:05.518Z,96600.29
2018-04-12T02:44:35.434Z,96569.66
2018-04-12T02:47:05.634Z,96559.42
2018-04-12T02:49:36.389Z,96572.78
2018-04-12T02:52:06.057Z,96595.06
2018-04-12T02:54:35.807Z,96591.14
2018-04-12T02:57:06.357Z,96589.53
2018-04-12T02:59:35.975Z,96598.58
2018-04-12T03:02:05.708Z,96602.39
2018-04-12T03:04:35.566Z,96583.06
2018-04-12T03:07:10.697Z,96567.12
2018-04-12T03:09:41.193Z,96581.23
2018-04-12T03:12:17.372Z,96575.46
2018-04-12T03:14:48.199Z,96563.28
2018-04-12T03:17:17.840Z,96562.06
2018-04-12T03:19:47.442Z,96568.28
2018-04-12T03:22:17.049Z,96572.61
2018-04-12T03:24:46.891Z,96563.41
2018-04-12T03:27:16.544Z,96564.10
2018-04-12T03:29:46.145Z,96557.77
2018-04-12T03:32:15.701Z,96564.44
2018-04-12T03:34:45.770Z,96560.69
2018-04-12T03:37:15.441Z,96564.86
2018-04-12T03:39:47.161Z,96560.81
2018-04-12T03:42:17.108Z,96559.48
2018-04-12T03:44:46.937Z,96563.15
2018-04-12T03:47:16.890Z,96561.95
2018-04-12T03:49:47.074Z,96569.38
2018-04-12T03:52:17.981Z,96571.41
2018-04-12T03:54:48.714Z,96554.84
2018-04-12T03:57:18.882Z,96563.08
2018-04-12T03:59:49.308Z,96564.72
2018-04-12T04:02:21.554Z,96562.42
2018-04-12T04:04:51.284Z,96567.42
2018-04-12T04:07:21.714Z,96566.60
2018-04-12T04:09:51.403Z,96554.47
2018-04-12T04:12:21.133Z,96554.31
2018-04-12T04:15:28.735Z,96551.36
2018-04-12T04:18:15.937Z,96559.86
2018-04-12T04:21:09.989Z,96566.20
2018-04-12T04:23:39.566Z,96578.19
2018-04-12T04:26:10.052Z,96584.94
2018-04-12T04:28:39.822Z,96592.62
2018-04-12T04:31:09.760Z,96590.58
2018-04-12T04:33:45.136Z,96591.94
2018-04-12T04:36:15.033Z,96598.40
2018-04-12T04:38:45.058Z,96598.28
2018-04-12T04:41:30.876Z,96603.03
2018-04-12T04:44:00.831Z,96610.32
2018-04-12T04:46:31.635Z,96611.14
2018-04-12T04:49:01.277Z,96612.99
2018-04-12T04:51:31.029Z,96612.86
2018-04-12T04:54:00.690Z,96618.13
2018-04-12T04:56:30.458Z,96631.08
2018-04-12T04:59:00.100Z,96643.48
2018-04-12T05:01:30.622Z,96636.97
2018-04-12T05:04:00.929Z,96636.72
2018-04-12T05:06:30.798Z,96637.78
2018-04-12T05:09:00.495Z,96648.30
2018-04-12T05:11:30.137Z,96653.02
2018-04-12T05:13:59.820Z,96648.27
2018-04-12T05:16:29.470Z,96639.94
2018-04-12T05:18:59.158Z,96634.55
2018-04-12T05:21:29.632Z,96627.41
2018-04-12T05:24:00.076Z,96632.27
2018-04-12T05:26:34.885Z,96638.48
2018-04-12T05:29:04.781Z,96633.66
2018-04-12T05:31:35.938Z,96627.70
2018-04-12T05:34:06.581Z,96625.70
2018-04-12T05:36:36.578Z,96635.92
2018-04-12T05:39:07.040Z,96626.63
2018-04-12T05:41:36.731Z,96620.96
2018-04-12T05:44:07.344Z,96630.53
2018-04-12T05:46:41.705Z,96635.27
2018-04-12T05:49:12.114Z,96618.25
2018-04-12T05:51:42.124Z,96621.48
2018-04-12T05:54:11.830Z,96611.34
2018-04-12T05:56:43.092Z,96622.69
2018-04-12T05:59:12.805Z,96621.59
2018-04-12T06:01:43.394Z,96621.98
2018-04-12T06:04:13.072Z,96624.13
2018-04-12T06:06:42.866Z,96632.36
2018-04-12T06:09:13.448Z,96628.95
2018-04-12T06:11:43.343Z,96616.80
2018-04-12T06:14:14.075Z,96615.42
2018-04-12T06:16:44.252Z,96612.17
2018-04-12T06:19:15.363Z,96605.53
2018-04-12T06:21:45.681Z,96616.18
2018-04-12T06:24:15.539Z,96617.53
2018-04-12T06:26:47.366Z,96618.32
2018-04-12T06:29:17.705Z,96626.55
2018-04-12T06:31:49.945Z,96625.61
2018-04-12T06:34:23.652Z,96620.06
2018-04-12T06:36:53.234Z,96640.58
2018-04-12T06:39:22.923Z,96644.38
2018-04-12T06:41:52.562Z,96642.72
2018-04-12T06:44:22.348Z,96638.39
2018-04-12T06:46:52.661Z,96645.66
2018-04-12T06:49:29.705Z,96637.41
2018-04-12T06:51:59.761Z,96639.55
2018-04-12T06:54:29.382Z,96641.02
2018-04-12T06:56:58.960Z,96652.99
2018-04-12T06:59:28.514Z,96652.46
2018-04-12T07:01:58.144Z,96655.10
2018-04-12T07:04:27.726Z,96658.50
2018-04-12T07:06:57.246Z,96654.63
2018-04-12T07:09:26.947Z,96662.52
2018-04-12T07:11:56.590Z,96663.05
2018-04-12T07:14:26.170Z,96668.05
2018-04-12T07:16:55.957Z,96670.78
2018-04-12T07:19:26.334Z,96670.47
2018-04-12T07:21:55.997Z,96672.35
2018-04-12T07:24:25.522Z,96670.12
2018-04-12T07:26:55.105Z,96683.27
2018-04-12T07:29:24.799Z,96686.69
2018-04-12T07:31:55.121Z,96688.99
2018-04-12T07:34:25.506Z,96692.68
2018-04-12T07:36:57.812Z,96692.02
2018-04-12T07:39:27.385Z,96687.81
2018-04-12T07:41:57.040Z,96688.33
2018-04-12T07:44:26.663Z,96689.69
2018-04-12T07:46:57.065Z,96693.48
2018-04-12T07:49:26.745Z,96704.81
2018-04-12T07:51:56.526Z,96696.84
2018-04-12T07:54:26.826Z,96697.49
2018-04-12T07:56:59.471Z,96690.58
2018-04-12T07:59:30.465Z,96689.47
2018-04-12T08:02:00.296Z,96697.27
2018-04-12T08:04:30.618Z,96697.89
2018-04-12T08:07:01.193Z,96696.98
2018-04-12T08:09:30.858Z,96697.22
2018-04-12T08:12:00.826Z,96695.98
2018-04-12T08:14:30.527Z,96700.83
2018-04-12T08:17:00.207Z,96693.49
2018-04-12T08:19:29.870Z,96696.73
2018-04-12T08:21:59.570Z,96695.21
2018-04-12T08:24:29.127Z,96696.77
2018-04-12T08:26:58.804Z,96693.98
2018-04-12T08:29:28.332Z,96695.70
2018-04-12T08:31:58.029Z,96681.02
2018-04-12T08:34:28.520Z,96678.45
2018-04-12T08:36:58.469Z,96675.56
2018-04-12T08:39:29.013Z,96673.56
2018-04-12T08:41:58.708Z,96672.09
2018-04-12T08:44:29.150Z,96677.52
2018-04-12T08:46:58.731Z,96676.38
2018-04-12T08:49:28.482Z,96681.88
2018-04-12T08:51:58.095Z,96679.73
2018-04-12T08:54:27.804Z,96687.77
2018-04-12T08:56:57.505Z,96687.18
2018-04-12T08:59:27.112Z,96693.46
2018-04-12T09:01:57.571Z,96692.98
2018-04-12T09:04:27.396Z,96686.92
2018-04-12T09:06:58.266Z,96687.34
2018-04-12T09:09:28.706Z,96693.66
2018-04-12T09:11:58.444Z,96689.94
2018-04-12T09:14:28.157Z,96693.14
2018-04-12T09:16:57.793Z,96693.78
2018-04-12T09:19:31.322Z,96688.98
2018-04-12T09:22:00.854Z,96692.41
2018-04-12T09:24:31.250Z,96682.40
2018-04-12T09:27:02.938Z,96686.33
2018-04-12T09:29:33.833Z,96684.15
2018-04-12T09:32:03.551Z,96684.30
2018-04-12T09:34:33.214Z,96687.12
2018-04-12T09:37:02.765Z,96686.71
2018-04-12T09:39:34.065Z,96682.02
2018-04-12T09:42:03.758Z,96689.54
2018-04-12T09:44:33.630Z,96682.50
2018-04-12T09:47:03.158Z,96682.62
2018-04-12T09:49:32.741Z,96687.17
2018-04-12T09:52:02.382Z,96683.28
2018-04-12T09:54:33.012Z,96687.84
2018-04-12T09:57:02.595Z,96685.53
2018-04-12T09:59:32.123Z,96679.95
2018-04-12T10:02:02.662Z,96681.77
2018-04-12T10:04:33.148Z,96683.78
2018-04-12T10:07:06.182Z,96682.92
2018-04-12T10:09:36.588Z,96686.11
2018-04-12T10:12:06.418Z,96687.73
2018-04-12T10:14:36.736Z,96681.23
2018-04-12T10:17:06.422Z,96679.16
2018-04-12T10:19:36.747Z,96679.46
2018-04-12T10:22:06.402Z,96671.77
2018-04-12T10:24:36.656Z,96674.50
2018-04-12T10:27:06.235Z,96661.69
2018-04-12T10:29:35.748Z,96662.55
2018-04-12T10:32:05.463Z,96656.63
2018-04-12T10:34:35.048Z,96654.98
2018-04-12T10:37:05.423Z,96650.73
2018-04-12T10:39:36.835Z,96651.88
2018-04-12T10:42:06.604Z,96645.56
2018-04-12T10:44:36.163Z,96642.91
2018-04-12T10:47:05.809Z,96643.00
2018-04-12T10:49:35.345Z,96645.83
2018-04-12T10:52:05.842Z,96639.67
2018-04-12T10:54:35.351Z,96634.15
2018-04-12T10:57:04.981Z,96639.75
2018-04-12T10:59:34.630Z,96633.75
2018-04-12T11:02:04.283Z,96628.48
2018-04-12T11:04:33.819Z,96618.36
2018-04-12T11:07:04.206Z,96607.42
2018-04-12T11:09:33.765Z,96614.11
2018-04-12T11:12:03.382Z,96607.13
2018-04-12T11:14:33.147Z,96601.55
2018-04-12T11:17:02.892Z,96598.36
2018-04-12T11:19:33.288Z,96592.44
2018-04-12T11:22:02.879Z,96589.73
2018-04-12T11:24:33.548Z,96588.55
2018-04-12T11:27:03.312Z,96599.41
2018-04-12T11:29:32.824Z,96597.31
2018-04-12T11:32:02.352Z,96600.14
2018-04-12T11:34:32.037Z,96597.69
2018-04-12T11:37:01.687Z,96602.45
2018-04-12T11:39:32.041Z,96598.56
2018-04-12T11:42:02.354Z,96608.79
2018-04-12T11:44:32.763Z,96613.52
2018-04-12T11:47:03.175Z,96618.19
2018-04-12T11:49:32.757Z,96624.97
2018-04-12T11:52:02.296Z,96632.59
2018-04-12T11:54:31.887Z,96640.70
2018-04-12T11:57:01.542Z,96644.35
2018-04-12T11:59:31.857Z,96639.58
2018-04-12T12:02:02.254Z,96623.61
2018-04-12T12:04:31.814Z,96618.84
2018-04-12T12:07:01.443Z,96639.36
2018-04-12T12:09:31.013Z,96648.69
2018-04-12T12:12:00.580Z,96652.22
2018-04-12T12:14:30.344Z,96659.36
2018-04-12T12:17:00.834Z,96664.08
2018-04-12T12:19:30.460Z,96687.95
2018-04-12T12:21:59.980Z,96682.16
2018-04-12T12:24:29.561Z,96685.00
2018-04-12T12:27:00.052Z,96680.41
2018-04-12T12:29:29.721Z,96671.36
2018-04-12T12:32:00.001Z,96671.52
2018-04-12T12:34:29.552Z,96670.16
2018-04-12T12:36:59.908Z,96680.01
2018-04-12T12:39:29.474Z,96682.31
2018-04-12T12:41:59.057Z,96675.16
2018-04-12T12:44:28.612Z,96667.08
2018-04-12T12:46:58.260Z,96666.41
2018-04-12T12:49:27.797Z,96665.45
2018-04-12T12:51:58.258Z,96669.37
2018-04-12T12:54:28.038Z,96667.34
2018-04-12T12:57:00.844Z,96660.20
2018-04-12T12:59:30.401Z,96657.63
2018-04-12T13:02:00.158Z,96648.00
2018-04-12T13:04:29.840Z,96649.76
2018-04-12T13:06:59.404Z,96653.45
2018-04-12T13:09:29.064Z,96648.30
2018-04-12T13:11:58.611Z,96641.59
2018-04-12T13:14:28.308Z,96648.09
2018-04-12T13:16:58.654Z,96640.81
2018-04-12T13:19:29.025Z,96640.52
2018-04-12T13:21:58.808Z,96634.86
2018-04-12T13:24:29.213Z,96639.00
2018-04-12T13:26:58.899Z,96624.30
2018-04-12T13:29:29.426Z,96626.16
2018-04-12T13:31:59.233Z,96631.39
2018-04-12T13:34:28.797Z,96632.66
2018-04-12T13:36:58.434Z,96622.28
2018-04-12T13:39:28.052Z,96629.48
2018-04-12T13:41:57.865Z,96638.16
2018-04-12T13:44:27.522Z,96636.31
2018-04-12T13:46:57.296Z,96639.30
2018-04-12T13:49:26.922Z,96644.41
2018-04-12T13:51:56.802Z,96645.36
2018-04-12T13:54:26.460Z,96643.72
2018-04-12T13:56:56.912Z,96644.09
2018-04-12T13:59:26.530Z,96642.16
2018-04-12T14:01:56.097Z,96642.95
2018-04-12T14:04:25.833Z,96630.13
2018-04-12T14:06:55.438Z,96631.69
2018-04-12T14:09:24.974Z,96639.92
2018-04-12T14:11:54.595Z,96637.89
2018-04-12T14:14:24.140Z,96635.06
2018-04-12T14:16:54.601Z,96630.37
2018-04-12T14:19:25.716Z,96634.67
2018-04-12T14:21:55.413Z,96637.07
2018-04-12T14:24:25.790Z,96639.44
2018-04-12T14:26:55.779Z,96634.95
2018-04-12T14:29:25.285Z,96640.05
2018-04-12T14:31:54.883Z,96639.83
2018-04-12T14:34:24.396Z,96637.34
2018-04-12T14:36:53.919Z,96637.02
2018-04-12T14:39:23.475Z,96635.30
2018-04-12T14:41:53.865Z,96626.82
2018-04-12T14:44:23.505Z,96622.84
2018-04-12T14:46:53.079Z,96631.00
2018-04-12T14:49:22.691Z,96640.56
2018-04-12T14:51:54.190Z,96638.49
2018-04-12T14:54:24.644Z,96631.87
2018-04-12T14:56:54.159Z,96635.00
2018-04-12T14:59:23.843Z,96639.71
2018-04-12T15:01:53.391Z,96643.77
2018-04-12T15:04:23.004Z,96644.04
2018-04-12T15:06:52.719Z,96653.19
2018-04-12T15:09:22.239Z,96643.34
2018-04-12T15:11:51.787Z,96647.94
2018-04-12T15:14:21.390Z,96645.08
2018-04-12T15:16:51.014Z,96658.95
2018-04-12T15:19:20.519Z,96664.88
2018-04-12T15:21:50.117Z,96658.28
2018-04-12T15:24:19.649Z,96653.05
2018-04-12T15:26:49.184Z,96653.33
2018-04-12T15:29:18.883Z,96649.70
2018-04-12T15:31:48.403Z,96646.86
2018-04-12T15:34:18.073Z,96653.86
2018-04-12T15:36:47.679Z,96658.03
2018-04-12T15:39:17.287Z,96666.00
2018-04-12T15:41:46.869Z,96662.77
2018-04-12T15:44:16.600Z,96664.23
2018-04-12T15:46:46.681Z,96659.27
2018-04-12T15:49:16.230Z,96662.08
2018-04-12T15:51:47.608Z,96653.87
2018-04-12T15:54:17.190Z,96648.35
2018-04-12T15:56:46.968Z,96658.30
2018-04-12T15:59:16.511Z,96655.77
2018-04-12T16:01:47.233Z,96661.42
2018-04-12T16:04:17.624Z,96654.69
2018-04-12T16:06:48.105Z,96651.98
2018-04-12T16:09:17.635Z,96657.77
2018-04-12T16:11:47.234Z,96656.29
2018-04-12T16:14:17.061Z,96661.41
2018-04-12T16:16:46.619Z,96663.71
2018-04-12T16:19:17.583Z,96670.57
2018-04-12T16:21:49.500Z,96661.83
2018-04-12T16:24:20.542Z,96668.70
2018-04-12T16:26:51.777Z,96664.64
2018-04-12T16:29:21.982Z,96663.03
2018-04-12T16:31:52.180Z,96659.52
2018-04-12T16:34:21.951Z,96654.14
2018-04-12T16:36:51.691Z,96656.02
2018-04-12T16:39:22.287Z,96655.61
2018-04-12T16:41:52.022Z,96648.20
2018-04-12T16:44:21.809Z,96650.23
2018-04-12T16:46:52.323Z,96656.02
2018-04-12T16:49:24.454Z,96654.81
2018-04-12T16:52:00.798Z,96654.69
2018-04-12T16:54:30.923Z,96651.30
2018-04-12T16:57:01.601Z,96654.81
2018-04-12T16:59:32.358Z,96651.57
2018-04-12T17:02:02.370Z,96652.10
2018-04-12T17:04:32.156Z,96652.12
2018-04-12T17:07:01.932Z,96659.40
2018-04-12T17:09:31.993Z,96660.06
2018-04-12T17:12:01.778Z,96662.88
2018-04-12T17:14:31.865Z,96674.73
2018-04-12T17:17:03.345Z,96662.22
2018-04-12T17:19:34.088Z,96673.11
2018-04-12T17:22:04.044Z,96667.30
2018-04-12T17:24:33.913Z,96672.69
2018-04-12T17:27:04.680Z,96671.88
2018-04-12T17:29:34.764Z,96680.52
2018-04-12T17:32:05.418Z,96681.30
2018-04-12T17:34:35.315Z,96670.94
2018-04-12T17:37:05.885Z,96686.33
2018-04-12T17:39:35.748Z,96689.18
2018-04-12T17:42:05.692Z,96686.86
2018-04-12T17:44:35.511Z,96688.36
2018-04-12T17:47:05.538Z,96680.80
2018-04-12T17:49:35.738Z,96690.12
2018-04-12T17:52:05.654Z,96693.23
2018-04-12T17:54:35.445Z,96701.45
2018-04-12T17:57:06.271Z,96697.92
2018-04-12T17:59:36.124Z,96689.03
2018-04-12T18:02:05.955Z,96699.40
2018-04-12T18:04:35.914Z,96699.96
2018-04-12T18:07:05.772Z,96700.34
2018-04-12T18:09:35.797Z,96710.47
2018-04-12T18:12:05.647Z,96713.95
2018-04-12T18:14:35.568Z,96729.84
2018-04-12T18:17:07.156Z,96729.04
2018-04-12T18:19:37.745Z,96729.88
2018-04-12T18:22:07.914Z,96732.70
2018-04-12T18:24:37.748Z,96734.59
2018-04-12T18:27:07.626Z,96741.75
2018-04-12T18:29:38.302Z,96744.30
2018-04-12T18:32:08.186Z,96743.76
2018-04-12T18:34:38.046Z,96754.80
2018-04-12T18:37:09.360Z,96759.13
2018-04-12T18:39:39.470Z,96757.49
2018-04-12T18:42:09.475Z,96765.19
2018-04-12T18:44:41.210Z,96765.45
2018-04-12T18:47:29.639Z,96771.52
2018-04-12T18:50:03.195Z,96775.16
2018-04-12T18:52:33.140Z,96780.84
2018-04-12T18:55:03.091Z,96784.47
2018-04-12T18:57:34.169Z,96797.41
2018-04-12T19:00:04.349Z,96800.78
2018-04-12T19:02:34.453Z,96796.45
2018-04-12T19:05:04.636Z,96805.34
2018-04-12T19:07:34.654Z,96801.69
2018-04-12T19:10:05.597Z,96803.73
2018-04-12T19:12:35.879Z,96813.28
2018-04-12T19:15:24.598Z,96819.76
2018-04-12T19:17:56.948Z,96816.66
2018-04-12T19:20:27.077Z,96828.36
2018-04-12T19:22:57.098Z,96837.53
2018-04-12T19:25:26.937Z,96834.72
2018-04-12T19:27:56.955Z,96838.22
2018-04-12T19:30:27.154Z,96841.30
2018-04-12T19:32:58.305Z,96834.58
2018-04-12T19:35:30.476Z,96832.53
2018-04-12T19:38:00.602Z,96835.52
2018-04-12T19:40:37.924Z,96838.77
2018-04-12T19:43:13.440Z,96846.58
2018-04-12T19:45:44.270Z,96849.41
2018-04-12T19:48:14.493Z,96844.41
2018-04-12T19:50:45.887Z,96851.15
2018-04-12T19:53:16.059Z,96843.04
2018-04-12T19:55:48.390Z,96853.68
2018-04-12T19:58:27.400Z,96863.61
2018-04-12T20:01:00.111Z,96860.56
2018-04-12T20:03:30.446Z,96868.08
2018-04-12T20:06:01.632Z,96858.63
2018-04-12T20:08:32.610Z,96862.92
2018-04-12T20:11:05.187Z,96869.27
2018-04-12T20:13:36.373Z,96875.61
2018-04-12T20:16:06.335Z,96870.07
2018-04-12T20:18:36.576Z,96865.16
2018-04-12T20:21:07.507Z,96870.81
2018-04-12T20:23:37.820Z,96860.58
2018-04-12T20:26:09.808Z,96859.47
2018-04-12T20:28:40.457Z,96859.61
2018-04-12T20:31:10.756Z,96859.91
2018-04-12T20:33:41.222Z,96860.98
2018-04-12T20:39:37.525Z,96870.27
2018-04-12T20:42:07.853Z,96866.49
2018-04-12T20:44:38.479Z,96870.00
2018-04-12T20:47:09.764Z,96875.39
2018-04-12T20:49:39.765Z,96872.45
2018-04-12T20:52:10.101Z,96868.66
2018-04-12T20:54:40.232Z,96879.46
2018-04-12T20:57:10.544Z,96865.44
2018-04-12T20:59:41.341Z,96865.58
2018-04-12T21:02:11.478Z,96866.61
2018-04-12T21:04:42.267Z,96868.49
2018-04-12T21:07:14.862Z,96869.81
2018-04-12T21:09:46.135Z,96866.16
2018-04-12T21:12:35.500Z,96871.83
2018-04-12T21:15:22.448Z,96880.03
2018-04-12T21:17:53.668Z,96878.40
2018-04-12T21:20:24.275Z,96871.41
2018-04-12T21:22:54.694Z,96873.80
2018-04-12T21:25:24.911Z,96876.61
2018-04-12T21:27:55.118Z,96875.67
2018-04-12T21:30:25.596Z,96886.71
2018-04-12T21:32:56.291Z,96892.09
2018-04-12T21:35:27.613Z,96896.70
2018-04-12T21:38:00.621Z,96892.22
2018-04-12T21:40:31.129Z,96891.66
2018-04-12T21:43:01.588Z,96899.89
2018-04-12T21:45:31.472Z,96893.95
2018-04-12T21:48:02.287Z,96904.89
2018-04-12T21:50:35.938Z,96912.41
2018-04-12T21:53:12.401Z,96912.97
2018-04-12T21:55:43.280Z,96917.42
2018-04-12T21:58:14.284Z,96917.53
2018-04-12T22:00:46.647Z,96909.16
2018-04-12T22:03:20.064Z,96916.83
2018-04-12T22:05:59.524Z,96926.00
2018-04-12T22:08:30.733Z,96933.40
2018-04-12T22:11:03.256Z,96926.38
2018-04-12T22:13:34.025Z,96930.41
2018-04-12T22:16:04.861Z,96930.27
2018-04-12T22:18:38.946Z,96931.08
2018-04-12T22:21:22.755Z,96934.71
2018-04-12T22:23:52.325Z,96937.11
2018-04-12T22:26:22.745Z,96934.94
2018-04-12T22:28:52.725Z,96944.10
2018-04-12T22:31:22.367Z,96945.56
2018-04-12T22:33:52.763Z,96939.20
2018-04-12T22:36:22.468Z,96959.95
2018-04-12T22:38:52.173Z,96957.00
2018-04-12T22:41:21.670Z,96958.73
2018-04-12T22:43:51.272Z,96952.93
2018-04-12T22:46:20.882Z,96953.34
2018-04-12T22:48:50.459Z,96957.23
2018-04-12T22:51:20.910Z,96953.72
2018-04-12T22:53:53.307Z,96961.30
2018-04-12T22:56:23.521Z,96966.98
2018-04-12T22:58:53.371Z,96966.73
2018-04-12T23:01:23.848Z,96962.69
2018-04-12T23:03:53.520Z,96970.50
2018-04-12T23:06:23.308Z,96971.44
2018-04-12T23:08:52.939Z,96971.97
2018-04-12T23:11:22.522Z,96970.09
2018-04-12T23:13:53.241Z,96969.13
2018-04-12T23:16:24.611Z,96976.11
2018-04-12T23:18:55.186Z,96969.23
2018-04-12T23:21:24.844Z,96966.50
2018-04-12T23:23:55.250Z,96965.95
2018-04-12T23:26:25.422Z,96968.37
2018-04-12T23:28:55.038Z,96973.53
2018-04-12T23:31:24.833Z,96976.86
2018-04-12T23:33:55.224Z,96975.22
2018-04-12T23:36:24.898Z,96981.80
2018-04-12T23:38:54.458Z,96982.16
2018-04-12T23:41:25.399Z,96971.98
2018-04-12T23:43:55.303Z,96976.69
2018-04-12T23:46:24.966Z,96984.88
2018-04-12T23:48:55.457Z,96987.42
2018-04-12T23:51:25.744Z,96986.33
2018-04-12T23:53:56.113Z,96986.07
2018-04-12T23:56:26.269Z,96987.68
2018-04-12T23:58:55.972Z,96993.47
